Bunga Angsana — 9MLI2 — position and weather

sailwx.info

Track history (hours):
 
Tides and Currents Weather Stations Pressure Air Temp Water Temp Dewpoint Dewpoint Depression Visibility Wind Speed Wind Dir Waves Ship Positions

Bunga Angsana

Last reported at 2018-Aug-12 01:49 UTC. Time now 2018-Aug-14 06:59 UTC.
Position N 49°48' W 003°21'.

Length 180 m; draft 10.2 m.

Type: Ship (hazmat cat B). MMSI: 533051500.

Date/timePositionNaut miles runAvg speedWind from/ knotsBaromVisibWave heightAir tempDewpointWater temp
2018-Aug-12 01:49N 49°48' W 003°21'1815.0
2018-Aug-12 00:38N 49°57' W 002°57'315.1
2018-Aug-12 00:24N 49°58' W 002°52'614.8
2018-Aug-11 23:59N 50°00' W 002°43'13512.5
2018-Aug-11 13:11N 50°38' E 000°40'613.2
2018-Aug-11 12:43N 50°42' E 000°48'412.5
2018-Aug-11 12:21N 50°44' E 000°54'2811.5
2018-Aug-11 09:56N 51°02' E 001°28'613.3
2018-Aug-11 09:28N 51°06' E 001°35'614.2
2018-Aug-11 09:00N 51°11' E 001°42'815.2
2018-Aug-11 08:30N 51°17' E 001°49'815.4
2018-Aug-11 08:00N 51°24' E 001°56'815.3
2018-Aug-11 07:29N 51°30' E 002°03'714.9
2018-Aug-11 07:00N 51°35' E 002°10'6311.7
2018-Aug-11 01:40N 52°04' E 003°40'210.2
2018-Aug-11 01:26N 52°05' E 003°44'410.0
2018-Aug-11 01:00N 52°05' E 003°51'3 6.7
2018-Aug-11 00:30N 52°03' E 003°56'4 7.8
2018-Aug-11 00:00N 52°00' E 004°00'5 9.2
2018-Aug-10 23:30N 51°58' E 004°07'3 5.9
2018-Aug-10 23:00N 51°56' E 004°11'0 0.1
2018-Aug-10 22:30N 51°56' E 004°11'0 0.0
2018-Aug-10 22:00N 51°56' E 004°11'0 0.0
2018-Aug-10 21:27N 51°56' E 004°11'0 0.0
2018-Aug-10 20:57N 51°56' E 004°11'0 0.0
2018-Aug-10 20:30N 51°56' E 004°11'0 0.0
2018-Aug-10 20:00N 51°56' E 004°11'0 0.0
2018-Aug-10 19:30N 51°56' E 004°11'0 0.0
2018-Aug-10 19:00N 51°56' E 004°11'0 0.0
2018-Aug-10 18:30N 51°56' E 004°11'0 0.0
2018-Aug-10 17:54N 51°56' E 004°11'0 0.0
2018-Aug-10 17:30N 51°56' E 004°11'0 0.0
2018-Aug-10 17:00N 51°56' E 004°11'0 0.0
2018-Aug-10 16:30N 51°56' E 004°11'0 0.0
2018-Aug-10 16:00N 51°56' E 004°11'0 0.0
2018-Aug-10 15:30N 51°56' E 004°11'0 0.0
2018-Aug-10 15:00N 51°56' E 004°11'0 0.0
2018-Aug-10 14:30N 51°56' E 004°11'0 0.0
2018-Aug-10 14:00N 51°56' E 004°11'0 0.0
2018-Aug-10 13:30N 51°56' E 004°11'0 0.0
2018-Aug-10 13:00N 51°56' E 004°11'0 0.0
2018-Aug-10 12:30N 51°56' E 004°11'0 0.0
2018-Aug-10 12:00N 51°56' E 004°11'2 4.2
2018-Aug-10 11:30N 51°58' E 004°08'5 9.2
2018-Aug-10 11:01N 52°00' E 004°02'5 9.9
2018-Aug-10 10:30N 51°58' E 004°09'611.3
2018-Aug-10 10:00N 51°54' E 004°16'3 7.0
2018-Aug-10 09:30N 51°54' E 004°22'0 0.0
2018-Aug-10 08:56N 51°54' E 004°22'0 0.0
2018-Aug-10 08:26N 51°54' E 004°22'0 0.0
2018-Aug-10 07:59N 51°54' E 004°22'0 0.0
2018-Aug-10 07:29N 51°54' E 004°22'0 0.0
2018-Aug-10 06:59N 51°54' E 004°22'0 0.0
2018-Aug-10 06:29N 51°54' E 004°22'0 0.0
2018-Aug-10 05:59N 51°54' E 004°22'0 0.0
2018-Aug-10 05:29N 51°54' E 004°22'0 0.0
2018-Aug-10 04:59N 51°54' E 004°22'0 0.0
2018-Aug-10 04:29N 51°54' E 004°22'0 0.0
2018-Aug-10 03:59N 51°54' E 004°22'0 0.0
2018-Aug-10 03:29N 51°54' E 004°22'0 0.0
2018-Aug-10 02:59N 51°54' E 004°22'0 0.0
2018-Aug-10 02:29N 51°54' E 004°22'0 0.0
2018-Aug-10 01:59N 51°54' E 004°22'0 0.0
2018-Aug-10 01:29N 51°54' E 004°22'0 0.0
2018-Aug-10 00:59N 51°54' E 004°22'0 0.0
2018-Aug-10 00:29N 51°54' E 004°22'0 0.0
2018-Aug-09 23:56N 51°54' E 004°22'0 0.0
2018-Aug-09 23:29N 51°54' E 004°22'0 0.0
2018-Aug-09 22:59N 51°54' E 004°22'0 0.0
2018-Aug-09 22:29N 51°54' E 004°22'0 0.0
2018-Aug-09 21:59N 51°54' E 004°22'0 0.0
2018-Aug-09 21:29N 51°54' E 004°22'0 0.0
2018-Aug-09 20:59N 51°54' E 004°22'0 0.0
2018-Aug-09 20:29N 51°54' E 004°22'0 0.0
2018-Aug-09 19:59N 51°54' E 004°22'0 0.0
2018-Aug-09 19:29N 51°54' E 004°22'0 0.0
2018-Aug-09 18:59N 51°54' E 004°22'0 0.0
2018-Aug-09 18:29N 51°54' E 004°22'0 0.0
2018-Aug-09 17:59N 51°54' E 004°22'0 0.0
2018-Aug-09 17:26N 51°54' E 004°22'0 0.0
2018-Aug-09 16:59N 51°54' E 004°22'0 0.0
2018-Aug-09 16:29N 51°54' E 004°22'0 0.0
2018-Aug-09 15:59N 51°54' E 004°22'0 0.0
2018-Aug-09 15:29N 51°54' E 004°22'0 0.0
2018-Aug-09 14:56N 51°54' E 004°22'0 0.0
2018-Aug-09 14:29N 51°54' E 004°22'0 0.0
2018-Aug-09 13:59N 51°54' E 004°22'0 0.0
2018-Aug-09 13:29N 51°54' E 004°22'0 0.0
2018-Aug-09 12:59N 51°54' E 004°22'0 0.0
2018-Aug-09 12:29N 51°54' E 004°22'0 0.0
2018-Aug-09 11:59N 51°54' E 004°22'0 0.0
2018-Aug-09 11:26N 51°54' E 004°22'0 0.0
2018-Aug-09 10:59N 51°54' E 004°22'0 0.0
2018-Aug-09 10:26N 51°54' E 004°22'0 0.0
2018-Aug-09 09:56N 51°54' E 004°22'0 0.0
2018-Aug-09 09:29N 51°54' E 004°22'0 0.0
2018-Aug-09 08:59N 51°54' E 004°22'0 0.0
2018-Aug-09 08:29N 51°54' E 004°22'0 0.0
2018-Aug-09 07:53N 51°54' E 004°22'0 0.0
2018-Aug-09 07:29N 51°54' E 004°22'0 0.0
2018-Aug-09 06:59N 51°54' E 004°22'0 0.0
2018-Aug-09 06:29N 51°54' E 004°22'0 0.0
2018-Aug-09 05:59N 51°54' E 004°22'0 0.0
2018-Aug-09 05:23N 51°54' E 004°22'0 0.0
2018-Aug-09 04:59N 51°54' E 004°22'0 0.0
2018-Aug-09 04:29N 51°54' E 004°22'0 0.0
2018-Aug-09 03:56N 51°54' E 004°22'0 0.0
2018-Aug-09 03:29N 51°54' E 004°22'0 0.0
2018-Aug-09 02:59N 51°54' E 004°22'0 0.0
2018-Aug-09 02:29N 51°54' E 004°22'0 0.0
2018-Aug-09 01:59N 51°54' E 004°22'0 0.0
2018-Aug-09 01:29N 51°54' E 004°22'0 0.0
2018-Aug-09 00:59N 51°54' E 004°22'0 0.0
2018-Aug-09 00:29N 51°54' E 004°22'0 0.0
2018-Aug-08 23:59N 51°54' E 004°22'0 0.0
2018-Aug-08 23:29N 51°54' E 004°22'0 0.0
2018-Aug-08 22:59N 51°54' E 004°22'0 0.0
2018-Aug-08 22:29N 51°54' E 004°22'0 0.0
2018-Aug-08 21:59N 51°54' E 004°22'0 0.0
2018-Aug-08 21:29N 51°54' E 004°22'0 0.0
2018-Aug-08 20:59N 51°54' E 004°22'0 0.0
2018-Aug-08 20:29N 51°54' E 004°22'0 0.0
2018-Aug-08 19:59N 51°54' E 004°22'0 0.0
2018-Aug-08 19:29N 51°54' E 004°22'0 0.0
2018-Aug-08 18:59N 51°54' E 004°22'0 0.0
2018-Aug-08 18:29N 51°54' E 004°22'0 0.0
2018-Aug-08 17:59N 51°54' E 004°22'0 0.0
2018-Aug-08 17:29N 51°54' E 004°22'0 0.0
2018-Aug-08 16:59N 51°54' E 004°22'0 0.0
2018-Aug-08 16:29N 51°54' E 004°22'0 0.0
2018-Aug-08 15:59N 51°54' E 004°22'0 0.0
2018-Aug-08 15:29N 51°54' E 004°22'0 0.0
2018-Aug-08 14:59N 51°54' E 004°22'0 0.0
2018-Aug-08 14:29N 51°54' E 004°22'0 0.0
2018-Aug-08 13:56N 51°54' E 004°22'0 0.0
2018-Aug-08 13:23N 51°54' E 004°22'0 0.0
2018-Aug-08 12:59N 51°54' E 004°22'0 0.0
2018-Aug-08 12:29N 51°54' E 004°22'0 0.0
2018-Aug-08 11:47N 51°54' E 004°22'0 0.0
2018-Aug-08 11:29N 51°54' E 004°22'0 0.0
2018-Aug-08 10:59N 51°54' E 004°22'0 0.0
2018-Aug-08 10:29N 51°54' E 004°22'0 0.0
2018-Aug-08 09:59N 51°54' E 004°22'0 0.0
2018-Aug-08 09:29N 51°54' E 004°22'0 0.0
2018-Aug-08 08:53N 51°54' E 004°22'0 0.0
2018-Aug-08 08:29N 51°54' E 004°22'0 0.0
2018-Aug-08 07:59N 51°54' E 004°22'0 0.0
2018-Aug-08 07:29N 51°54' E 004°22'0 0.0
2018-Aug-08 06:53N 51°54' E 004°22'0 0.0
2018-Aug-08 06:29N 51°54' E 004°22'0 0.0
2018-Aug-08 05:53N 51°54' E 004°22'0 0.0
2018-Aug-08 05:29N 51°54' E 004°22'0 0.0
2018-Aug-08 04:59N 51°54' E 004°22'0 0.0
2018-Aug-08 04:29N 51°54' E 004°22'0 0.0
2018-Aug-08 03:53N 51°54' E 004°22'0 0.0
2018-Aug-08 03:29N 51°54' E 004°22'0 0.0
2018-Aug-08 02:53N 51°54' E 004°22'0 0.0
2018-Aug-08 02:17N 51°54' E 004°22'0 0.0
2018-Aug-08 01:59N 51°54' E 004°22'0 0.0
2018-Aug-08 01:29N 51°54' E 004°22'0 0.0
2018-Aug-08 00:59N 51°54' E 004°22'0 0.0
2018-Aug-08 00:23N 51°54' E 004°22'0 0.1
2018-Aug-07 23:53N 51°54' E 004°22'0 0.0
2018-Aug-07 23:23N 51°54' E 004°22'0 0.0
2018-Aug-07 22:23N 51°54' E 004°22'0 0.0
2018-Aug-07 21:59N 51°54' E 004°22'0 0.0
2018-Aug-07 21:29N 51°54' E 004°22'0 0.0
2018-Aug-07 20:59N 51°54' E 004°22'0 0.0
2018-Aug-07 20:29N 51°54' E 004°22'0 0.0
2018-Aug-07 19:59N 51°54' E 004°22'0 0.0
2018-Aug-07 19:29N 51°54' E 004°22'0 0.0
2018-Aug-07 18:59N 51°54' E 004°22'0 0.0
2018-Aug-07 18:29N 51°54' E 004°22'0 0.0
2018-Aug-07 17:59N 51°54' E 004°22'0 0.0
2018-Aug-07 17:29N 51°54' E 004°22'0 0.0
2018-Aug-07 16:59N 51°54' E 004°22'0 0.0
2018-Aug-07 16:29N 51°54' E 004°22'0 0.0
2018-Aug-07 15:59N 51°54' E 004°22'0 0.0
2018-Aug-07 15:29N 51°54' E 004°22'0 0.0
2018-Aug-07 14:53N 51°54' E 004°22'0 0.0
2018-Aug-07 14:23N 51°54' E 004°22'0 0.0
2018-Aug-07 13:59N 51°54' E 004°22'0 0.0
2018-Aug-07 13:29N 51°54' E 004°22'0 0.0
2018-Aug-07 12:59N 51°54' E 004°22'0 0.0
2018-Aug-07 12:29N 51°54' E 004°22'0 0.0
2018-Aug-07 11:59N 51°54' E 004°22'0 0.0
2018-Aug-07 11:29N 51°54' E 004°22'0 0.0
2018-Aug-07 10:59N 51°54' E 004°22'0 0.0
2018-Aug-07 10:29N 51°54' E 004°22'0 0.0
2018-Aug-07 09:59N 51°54' E 004°22'0 0.0
2018-Aug-07 09:23N 51°54' E 004°22'0 0.0
2018-Aug-07 08:59N 51°54' E 004°22'0 0.0
2018-Aug-07 08:29N 51°54' E 004°22'0 0.0
2018-Aug-07 07:59N 51°54' E 004°22'0 0.0
2018-Aug-07 07:23N 51°54' E 004°22'0 0.0
2018-Aug-07 06:59N 51°54' E 004°22'0 0.0
2018-Aug-07 06:29N 51°54' E 004°22'0 0.0
2018-Aug-07 05:56N 51°54' E 004°22'0 0.0
2018-Aug-07 05:29N 51°54' E 004°22'0 0.0
2018-Aug-07 04:59N 51°54' E 004°22'0 0.0
2018-Aug-07 04:29N 51°54' E 004°22'0 0.0
2018-Aug-07 03:56N 51°54' E 004°22'0 0.0
2018-Aug-07 03:26N 51°54' E 004°22'0 0.0
2018-Aug-07 02:56N 51°54' E 004°22'0 0.0
2018-Aug-07 02:29N 51°54' E 004°22'0 0.0
2018-Aug-07 01:56N 51°54' E 004°22'0 0.0
2018-Aug-07 01:29N 51°54' E 004°22'0 0.0
2018-Aug-07 00:59N 51°54' E 004°22'0 0.0
2018-Aug-07 00:20N 51°54' E 004°22'0 0.0
2018-Aug-06 23:59N 51°54' E 004°22'0 0.0
2018-Aug-06 23:29N 51°54' E 004°22'0 0.0
2018-Aug-06 22:59N 51°54' E 004°22'0 0.0
2018-Aug-06 22:29N 51°54' E 004°22'0 0.0
2018-Aug-06 21:59N 51°54' E 004°22'0 0.0
2018-Aug-06 21:29N 51°54' E 004°22'0 0.1
2018-Aug-06 21:00N 51°54' E 004°22'0 0.4
2018-Aug-06 20:29N 51°54' E 004°22'0 0.0
2018-Aug-06 19:59N 51°54' E 004°22'0 0.0
2018-Aug-06 19:26N 51°54' E 004°22'0 0.0
2018-Aug-06 18:56N 51°54' E 004°22'0 0.0
2018-Aug-06 18:29N 51°54' E 004°22'0 0.0
2018-Aug-06 17:59N 51°54' E 004°22'0 0.0
2018-Aug-06 17:29N 51°54' E 004°22'0 0.0
2018-Aug-06 16:56N 51°54' E 004°22'0 0.0
2018-Aug-06 16:20N 51°54' E 004°22'0 0.0
2018-Aug-06 15:59N 51°54' E 004°22'0 0.0
2018-Aug-06 15:26N 51°54' E 004°22'0 0.0
2018-Aug-06 14:50N 51°54' E 004°22'0 0.4
2018-Aug-06 14:29N 51°54' E 004°22'2 3.7
2018-Aug-06 14:00N 51°54' E 004°19'4 8.1
2018-Aug-06 13:30N 51°56' E 004°13'5 9.4
2018-Aug-06 13:00N 51°58' E 004°07'611.1
2018-Aug-06 12:30N 52°00' E 003°59'611.0
2018-Aug-06 12:00N 52°00' E 003°50'4 7.1
2018-Aug-06 11:30N 51°58' E 003°46'2 4.7
2018-Aug-06 11:00N 51°55' E 003°45'0 0.1
2018-Aug-06 10:00N 51°55' E 003°45'0 0.0
2018-Aug-06 09:18N 51°55' E 003°45'0 0.0
2018-Aug-06 08:51N 51°55' E 003°45'0 0.0
2018-Aug-06 08:30N 51°55' E 003°45'0 0.0
2018-Aug-06 08:00N 51°55' E 003°45'0 0.0
2018-Aug-06 07:30N 51°55' E 003°45'0 0.0
2018-Aug-06 06:51N 51°55' E 003°45'0 0.1
2018-Aug-06 06:30N 51°55' E 003°45'0 0.2
2018-Aug-06 06:00N 51°55' E 003°45'0 0.1
2018-Aug-06 03:54N 51°55' E 003°45'0 0.0
2018-Aug-06 03:12N 51°55' E 003°45'0 0.0
2018-Aug-06 01:09N 51°55' E 003°45'0 0.0
2018-Aug-06 00:54N 51°55' E 003°45'0 0.0
2018-Aug-06 00:30N 51°55' E 003°45'0 0.1
2018-Aug-05 23:15N 51°55' E 003°45'0 0.1
2018-Aug-05 22:51N 51°55' E 003°45'0 0.1
2018-Aug-05 22:21N 51°55' E 003°45'0 0.1
2018-Aug-05 22:00N 51°55' E 003°45'0 0.0
2018-Aug-05 21:30N 51°55' E 003°45'0 0.0
2018-Aug-05 20:27N 51°55' E 003°45'0 0.0
2018-Aug-05 19:58N 51°55' E 003°45'0 0.0
2018-Aug-05 15:45N 51°55' E 003°45'0 0.0
2018-Aug-05 15:27N 51°55' E 003°45'0 0.0
2018-Aug-05 14:39N 51°55' E 003°45'0 0.0
2018-Aug-05 12:39N 51°55' E 003°45'0 0.0
2018-Aug-05 12:18N 51°55' E 003°45'0 0.0
2018-Aug-05 06:06N 51°55' E 003°45'0 0.1
2018-Aug-05 03:21N 51°55' E 003°45'0 0.0
2018-Aug-05 02:51N 51°55' E 003°45'0 0.0
2018-Aug-05 02:27N 51°55' E 003°45'0 0.0
2018-Aug-05 01:12N 51°55' E 003°45'0 0.0
2018-Aug-05 00:42N 51°55' E 003°45'0 0.0
2018-Aug-05 00:27N 51°55' E 003°45'0 0.0
2018-Aug-04 20:06N 51°55' E 003°45'0 0.0
2018-Aug-04 19:57N 51°55' E 003°45'0 0.0
2018-Aug-04 19:30N 51°55' E 003°45'0 0.0
2018-Aug-04 19:00N 51°55' E 003°45'0 0.0
2018-Aug-04 08:51N 51°55' E 003°45'0 0.0
2018-Aug-04 08:30N 51°55' E 003°45'0 0.0
2018-Aug-04 08:00N 51°55' E 003°45'0 0.0
2018-Aug-04 07:24N 51°55' E 003°45'0 0.0
2018-Aug-04 07:00N 51°55' E 003°45'0 0.0
2018-Aug-04 06:30N 51°55' E 003°45'0 0.0
2018-Aug-04 05:00N 51°55' E 003°45'0 0.2
2018-Aug-04 04:30N 51°55' E 003°45'0 0.1
2018-Aug-04 04:00N 51°55' E 003°45'0 0.1
2018-Aug-04 03:15N 51°55' E 003°45'0 0.1
2018-Aug-04 02:57N 51°55' E 003°45'0 0.0
2018-Aug-04 01:54N 51°55' E 003°45'0 0.0
2018-Aug-04 01:27N 51°55' E 003°45'0 0.0
2018-Aug-04 01:00N 51°55' E 003°45'0 0.0
2018-Aug-04 00:21N 51°55' E 003°45'0 0.0
2018-Aug-03 23:57N 51°55' E 003°45'0 0.0
2018-Aug-03 23:12N 51°55' E 003°45'0 0.0
2018-Aug-03 23:00N 51°55' E 003°45'0 0.0
2018-Aug-03 22:21N 51°55' E 003°45'0 0.0
2018-Aug-03 22:00N 51°55' E 003°45'0 0.3
2018-Aug-03 21:24N 51°55' E 003°45'0 0.1
2018-Aug-03 20:51N 51°55' E 003°45'0 0.0
2018-Aug-03 20:21N 51°55' E 003°45'0 0.0
2018-Aug-03 19:57N 51°55' E 003°45'0 0.0
2018-Aug-03 19:21N 51°55' E 003°45'0 0.0
2018-Aug-03 18:57N 51°55' E 003°45'0 0.0
2018-Aug-03 18:30N 51°55' E 003°45'0 0.0
2018-Aug-03 18:00N 51°55' E 003°45'0 0.0
2018-Aug-03 17:24N 51°55' E 003°45'0 0.0
2018-Aug-03 17:00N 51°55' E 003°45'0 0.2
2018-Aug-03 16:30N 51°55' E 003°45'0 0.1
2018-Aug-03 16:00N 51°55' E 003°45'0 0.1
2018-Aug-03 15:27N 51°55' E 003°44'0 0.1
2018-Aug-03 14:57N 51°55' E 003°45'0 0.0
2018-Aug-03 14:21N 51°55' E 003°45'0 0.0
2018-Aug-03 13:48N 51°55' E 003°45'0 0.0
2018-Aug-03 13:18N 51°55' E 003°45'0 0.0
2018-Aug-03 12:54N 51°55' E 003°45'0 0.0
2018-Aug-03 12:27N 51°55' E 003°45'0 0.0
2018-Aug-03 11:57N 51°55' E 003°45'0 0.0
2018-Aug-03 11:27N 51°55' E 003°45'0 0.0
2018-Aug-03 10:57N 51°55' E 003°45'0 0.1
2018-Aug-03 10:27N 51°55' E 003°45'0 0.0
2018-Aug-03 10:00N 51°55' E 003°45'0 0.1
2018-Aug-03 07:36N 51°55' E 003°45'0 0.1
2018-Aug-03 05:25N 51°56' E 003°45'2 4.2
2018-Aug-03 05:00N 51°57' E 003°44'3 6.0
2018-Aug-03 04:30N 51°58' E 003°39'611.6
2018-Aug-03 04:00N 51°56' E 003°30'713.2
2018-Aug-03 03:27N 51°54' E 003°19'612.8
2018-Aug-03 03:00N 51°53' E 003°10'612.4
2018-Aug-03 02:29N 51°51' E 002°60'612.1
2018-Aug-03 02:00N 51°49' E 002°51'611.7
2018-Aug-03 01:30N 51°47' E 002°42'611.1
2018-Aug-03 01:00N 51°44' E 002°34'511.1
2018-Aug-03 00:30N 51°40' E 002°29'611.0
2018-Aug-02 23:59N 51°35' E 002°23'510.8
2018-Aug-02 23:30N 51°31' E 002°17'510.6
2018-Aug-02 23:00N 51°27' E 002°13'511.0
2018-Aug-02 22:30N 51°22' E 002°10'611.2
2018-Aug-02 22:00N 51°16' E 002°07'510.5
2018-Aug-02 21:30N 51°13' E 002°01'611.3
2018-Aug-02 21:00N 51°10' E 001°53'611.3
2018-Aug-02 20:30N 51°07' E 001°46'611.5
2018-Aug-02 20:00N 51°03' E 001°39'612.0
2018-Aug-02 19:31N 50°59' E 001°32'611.9
2018-Aug-02 19:00N 50°54' E 001°27'612.8
2018-Aug-02 18:30N 50°47' E 001°25'612.1
2018-Aug-02 18:00N 50°42' E 001°19'612.7
2018-Aug-02 17:30N 50°38' E 001°12'612.7
2018-Aug-02 17:00N 50°33' E 001°05'612.2
2018-Aug-02 16:30N 50°30' E 000°57'612.4
2018-Aug-02 16:00N 50°28' E 000°48'612.4
2018-Aug-02 15:30N 50°26' E 000°38'612.5
2018-Aug-02 15:00N 50°25' E 000°29'612.7
2018-Aug-02 14:30N 50°23' E 000°19'613.0
2018-Aug-02 14:00N 50°22' E 000°10'813.6
2018-Aug-02 13:23N 50°20' W 000°03'514.1
2018-Aug-02 13:00N 50°19' W 000°12'714.5
2018-Aug-02 12:29N 50°17' W 000°23'815.1
2018-Aug-02 11:56N 50°15' W 000°36'715.2
2018-Aug-02 11:30N 50°13' W 000°46'815.4
2018-Aug-02 11:00N 50°12' W 000°57'610.8
2018-Aug-02 10:29N 50°14' W 001°05'612.1
2018-Aug-02 10:01N 50°20' W 001°06'510.9
2018-Aug-02 09:30N 50°24' W 001°01'611.0
2018-Aug-02 09:00N 50°29' W 000°55'1310.7
2018-Aug-02 07:45N 50°42' W 000°57'311.5
2018-Aug-02 07:30N 50°43' W 001°01'612.6
2018-Aug-02 07:00N 50°46' W 001°10'611.3
2018-Aug-02 06:30N 50°47' W 001°19'3 6.9
2018-Aug-02 06:00N 50°50' W 001°20'0 0.3
2018-Aug-02 05:20N 50°50' W 001°20'0 0.0
2018-Aug-02 04:50N 50°50' W 001°20'0 0.0
2018-Aug-02 04:23N 50°50' W 001°20'0 0.0
2018-Aug-02 03:53N 50°50' W 001°20'0 0.0
2018-Aug-02 03:23N 50°50' W 001°20'0 0.0
2018-Aug-02 02:53N 50°50' W 001°20'0 0.0
2018-Aug-02 02:26N 50°50' W 001°20'0 0.0
2018-Aug-02 01:56N 50°50' W 001°20'  
Track history (hours):
 
Tides and Currents Weather Stations Pressure Air Temp Water Temp Dewpoint Dewpoint Depression Visibility Wind Speed Wind Dir Waves Ship Positions

Bunga Angsana

Last reported at 2018-Aug-12 01:49 UTC. Time now 2018-Aug-14 06:59 UTC.
Position N 49°48' W 003°21'.

Length 180 m; draft 10.2 m.

Type: Ship (hazmat cat B). MMSI: 533051500.

Date/timePositionNaut miles runAvg speedWind from/ knotsBaromVisibWave heightAir tempDewpointWater temp
2018-Aug-12 01:49N 49°48' W 003°21'1815.0
2018-Aug-12 00:38N 49°57' W 002°57'315.1
2018-Aug-12 00:24N 49°58' W 002°52'614.8
2018-Aug-11 23:59N 50°00' W 002°43'13512.5
2018-Aug-11 13:11N 50°38' E 000°40'613.2
2018-Aug-11 12:43N 50°42' E 000°48'412.5
2018-Aug-11 12:21N 50°44' E 000°54'2811.5
2018-Aug-11 09:56N 51°02' E 001°28'613.3
2018-Aug-11 09:28N 51°06' E 001°35'614.2
2018-Aug-11 09:00N 51°11' E 001°42'815.2
2018-Aug-11 08:30N 51°17' E 001°49'815.4
2018-Aug-11 08:00N 51°24' E 001°56'815.3
2018-Aug-11 07:29N 51°30' E 002°03'714.9
2018-Aug-11 07:00N 51°35' E 002°10'6311.7
2018-Aug-11 01:40N 52°04' E 003°40'210.2
2018-Aug-11 01:26N 52°05' E 003°44'410.0
2018-Aug-11 01:00N 52°05' E 003°51'3 6.7
2018-Aug-11 00:30N 52°03' E 003°56'4 7.8
2018-Aug-11 00:00N 52°00' E 004°00'5 9.2
2018-Aug-10 23:30N 51°58' E 004°07'3 5.9
2018-Aug-10 23:00N 51°56' E 004°11'0 0.1
2018-Aug-10 22:30N 51°56' E 004°11'0 0.0
2018-Aug-10 22:00N 51°56' E 004°11'0 0.0
2018-Aug-10 21:27N 51°56' E 004°11'0 0.0
2018-Aug-10 20:57N 51°56' E 004°11'0 0.0
2018-Aug-10 20:30N 51°56' E 004°11'0 0.0
2018-Aug-10 20:00N 51°56' E 004°11'0 0.0
2018-Aug-10 19:30N 51°56' E 004°11'0 0.0
2018-Aug-10 19:00N 51°56' E 004°11'0 0.0
2018-Aug-10 18:30N 51°56' E 004°11'0 0.0
2018-Aug-10 17:54N 51°56' E 004°11'0 0.0
2018-Aug-10 17:30N 51°56' E 004°11'0 0.0
2018-Aug-10 17:00N 51°56' E 004°11'0 0.0
2018-Aug-10 16:30N 51°56' E 004°11'0 0.0
2018-Aug-10 16:00N 51°56' E 004°11'0 0.0
2018-Aug-10 15:30N 51°56' E 004°11'0 0.0
2018-Aug-10 15:00N 51°56' E 004°11'0 0.0
2018-Aug-10 14:30N 51°56' E 004°11'0 0.0
2018-Aug-10 14:00N 51°56' E 004°11'0 0.0
2018-Aug-10 13:30N 51°56' E 004°11'0 0.0
2018-Aug-10 13:00N 51°56' E 004°11'0 0.0
2018-Aug-10 12:30N 51°56' E 004°11'0 0.0
2018-Aug-10 12:00N 51°56' E 004°11'2 4.2
2018-Aug-10 11:30N 51°58' E 004°08'5 9.2
2018-Aug-10 11:01N 52°00' E 004°02'5 9.9
2018-Aug-10 10:30N 51°58' E 004°09'611.3
2018-Aug-10 10:00N 51°54' E 004°16'3 7.0
2018-Aug-10 09:30N 51°54' E 004°22'0 0.0
2018-Aug-10 08:56N 51°54' E 004°22'0 0.0
2018-Aug-10 08:26N 51°54' E 004°22'0 0.0
2018-Aug-10 07:59N 51°54' E 004°22'0 0.0
2018-Aug-10 07:29N 51°54' E 004°22'0 0.0
2018-Aug-10 06:59N 51°54' E 004°22'0 0.0
2018-Aug-10 06:29N 51°54' E 004°22'0 0.0
2018-Aug-10 05:59N 51°54' E 004°22'0 0.0
2018-Aug-10 05:29N 51°54' E 004°22'0 0.0
2018-Aug-10 04:59N 51°54' E 004°22'0 0.0
2018-Aug-10 04:29N 51°54' E 004°22'0 0.0
2018-Aug-10 03:59N 51°54' E 004°22'0 0.0
2018-Aug-10 03:29N 51°54' E 004°22'0 0.0
2018-Aug-10 02:59N 51°54' E 004°22'0 0.0
2018-Aug-10 02:29N 51°54' E 004°22'0 0.0
2018-Aug-10 01:59N 51°54' E 004°22'0 0.0
2018-Aug-10 01:29N 51°54' E 004°22'0 0.0
2018-Aug-10 00:59N 51°54' E 004°22'0 0.0
2018-Aug-10 00:29N 51°54' E 004°22'0 0.0
2018-Aug-09 23:56N 51°54' E 004°22'0 0.0
2018-Aug-09 23:29N 51°54' E 004°22'0 0.0
2018-Aug-09 22:59N 51°54' E 004°22'0 0.0
2018-Aug-09 22:29N 51°54' E 004°22'0 0.0
2018-Aug-09 21:59N 51°54' E 004°22'0 0.0
2018-Aug-09 21:29N 51°54' E 004°22'0 0.0
2018-Aug-09 20:59N 51°54' E 004°22'0 0.0
2018-Aug-09 20:29N 51°54' E 004°22'0 0.0
2018-Aug-09 19:59N 51°54' E 004°22'0 0.0
2018-Aug-09 19:29N 51°54' E 004°22'0 0.0
2018-Aug-09 18:59N 51°54' E 004°22'0 0.0
2018-Aug-09 18:29N 51°54' E 004°22'0 0.0
2018-Aug-09 17:59N 51°54' E 004°22'0 0.0
2018-Aug-09 17:26N 51°54' E 004°22'0 0.0
2018-Aug-09 16:59N 51°54' E 004°22'0 0.0
2018-Aug-09 16:29N 51°54' E 004°22'0 0.0
2018-Aug-09 15:59N 51°54' E 004°22'0 0.0
2018-Aug-09 15:29N 51°54' E 004°22'0 0.0
2018-Aug-09 14:56N 51°54' E 004°22'0 0.0
2018-Aug-09 14:29N 51°54' E 004°22'0 0.0
2018-Aug-09 13:59N 51°54' E 004°22'0 0.0
2018-Aug-09 13:29N 51°54' E 004°22'0 0.0
2018-Aug-09 12:59N 51°54' E 004°22'0 0.0
2018-Aug-09 12:29N 51°54' E 004°22'0 0.0
2018-Aug-09 11:59N 51°54' E 004°22'0 0.0
2018-Aug-09 11:26N 51°54' E 004°22'0 0.0
2018-Aug-09 10:59N 51°54' E 004°22'0 0.0
2018-Aug-09 10:26N 51°54' E 004°22'0 0.0
2018-Aug-09 09:56N 51°54' E 004°22'0 0.0
2018-Aug-09 09:29N 51°54' E 004°22'0 0.0
2018-Aug-09 08:59N 51°54' E 004°22'0 0.0
2018-Aug-09 08:29N 51°54' E 004°22'0 0.0
2018-Aug-09 07:53N 51°54' E 004°22'0 0.0
2018-Aug-09 07:29N 51°54' E 004°22'0 0.0
2018-Aug-09 06:59N 51°54' E 004°22'0 0.0
2018-Aug-09 06:29N 51°54' E 004°22'0 0.0
2018-Aug-09 05:59N 51°54' E 004°22'0 0.0
2018-Aug-09 05:23N 51°54' E 004°22'0 0.0
2018-Aug-09 04:59N 51°54' E 004°22'0 0.0
2018-Aug-09 04:29N 51°54' E 004°22'0 0.0
2018-Aug-09 03:56N 51°54' E 004°22'0 0.0
2018-Aug-09 03:29N 51°54' E 004°22'0 0.0
2018-Aug-09 02:59N 51°54' E 004°22'0 0.0
2018-Aug-09 02:29N 51°54' E 004°22'0 0.0
2018-Aug-09 01:59N 51°54' E 004°22'0 0.0
2018-Aug-09 01:29N 51°54' E 004°22'0 0.0
2018-Aug-09 00:59N 51°54' E 004°22'0 0.0
2018-Aug-09 00:29N 51°54' E 004°22'0 0.0
2018-Aug-08 23:59N 51°54' E 004°22'0 0.0
2018-Aug-08 23:29N 51°54' E 004°22'0 0.0
2018-Aug-08 22:59N 51°54' E 004°22'0 0.0
2018-Aug-08 22:29N 51°54' E 004°22'0 0.0
2018-Aug-08 21:59N 51°54' E 004°22'0 0.0
2018-Aug-08 21:29N 51°54' E 004°22'0 0.0
2018-Aug-08 20:59N 51°54' E 004°22'0 0.0
2018-Aug-08 20:29N 51°54' E 004°22'0 0.0
2018-Aug-08 19:59N 51°54' E 004°22'0 0.0
2018-Aug-08 19:29N 51°54' E 004°22'0 0.0
2018-Aug-08 18:59N 51°54' E 004°22'0 0.0
2018-Aug-08 18:29N 51°54' E 004°22'0 0.0
2018-Aug-08 17:59N 51°54' E 004°22'0 0.0
2018-Aug-08 17:29N 51°54' E 004°22'0 0.0
2018-Aug-08 16:59N 51°54' E 004°22'0 0.0
2018-Aug-08 16:29N 51°54' E 004°22'0 0.0
2018-Aug-08 15:59N 51°54' E 004°22'0 0.0
2018-Aug-08 15:29N 51°54' E 004°22'0 0.0
2018-Aug-08 14:59N 51°54' E 004°22'0 0.0
2018-Aug-08 14:29N 51°54' E 004°22'0 0.0
2018-Aug-08 13:56N 51°54' E 004°22'0 0.0
2018-Aug-08 13:23N 51°54' E 004°22'0 0.0
2018-Aug-08 12:59N 51°54' E 004°22'0 0.0
2018-Aug-08 12:29N 51°54' E 004°22'0 0.0
2018-Aug-08 11:47N 51°54' E 004°22'0 0.0
2018-Aug-08 11:29N 51°54' E 004°22'0 0.0
2018-Aug-08 10:59N 51°54' E 004°22'0 0.0
2018-Aug-08 10:29N 51°54' E 004°22'0 0.0
2018-Aug-08 09:59N 51°54' E 004°22'0 0.0
2018-Aug-08 09:29N 51°54' E 004°22'0 0.0
2018-Aug-08 08:53N 51°54' E 004°22'0 0.0
2018-Aug-08 08:29N 51°54' E 004°22'0 0.0
2018-Aug-08 07:59N 51°54' E 004°22'0 0.0
2018-Aug-08 07:29N 51°54' E 004°22'0 0.0
2018-Aug-08 06:53N 51°54' E 004°22'0 0.0
2018-Aug-08 06:29N 51°54' E 004°22'0 0.0
2018-Aug-08 05:53N 51°54' E 004°22'0 0.0
2018-Aug-08 05:29N 51°54' E 004°22'0 0.0
2018-Aug-08 04:59N 51°54' E 004°22'0 0.0
2018-Aug-08 04:29N 51°54' E 004°22'0 0.0
2018-Aug-08 03:53N 51°54' E 004°22'0 0.0
2018-Aug-08 03:29N 51°54' E 004°22'0 0.0
2018-Aug-08 02:53N 51°54' E 004°22'0 0.0
2018-Aug-08 02:17N 51°54' E 004°22'0 0.0
2018-Aug-08 01:59N 51°54' E 004°22'0 0.0
2018-Aug-08 01:29N 51°54' E 004°22'0 0.0
2018-Aug-08 00:59N 51°54' E 004°22'0 0.0
2018-Aug-08 00:23N 51°54' E 004°22'0 0.1
2018-Aug-07 23:53N 51°54' E 004°22'0 0.0
2018-Aug-07 23:23N 51°54' E 004°22'0 0.0
2018-Aug-07 22:23N 51°54' E 004°22'0 0.0
2018-Aug-07 21:59N 51°54' E 004°22'0 0.0
2018-Aug-07 21:29N 51°54' E 004°22'0 0.0
2018-Aug-07 20:59N 51°54' E 004°22'0 0.0
2018-Aug-07 20:29N 51°54' E 004°22'0 0.0
2018-Aug-07 19:59N 51°54' E 004°22'0 0.0
2018-Aug-07 19:29N 51°54' E 004°22'0 0.0
2018-Aug-07 18:59N 51°54' E 004°22'0 0.0
2018-Aug-07 18:29N 51°54' E 004°22'0 0.0
2018-Aug-07 17:59N 51°54' E 004°22'0 0.0
2018-Aug-07 17:29N 51°54' E 004°22'0 0.0
2018-Aug-07 16:59N 51°54' E 004°22'0 0.0
2018-Aug-07 16:29N 51°54' E 004°22'0 0.0
2018-Aug-07 15:59N 51°54' E 004°22'0 0.0
2018-Aug-07 15:29N 51°54' E 004°22'0 0.0
2018-Aug-07 14:53N 51°54' E 004°22'0 0.0
2018-Aug-07 14:23N 51°54' E 004°22'0 0.0
2018-Aug-07 13:59N 51°54' E 004°22'0 0.0
2018-Aug-07 13:29N 51°54' E 004°22'0 0.0
2018-Aug-07 12:59N 51°54' E 004°22'0 0.0
2018-Aug-07 12:29N 51°54' E 004°22'0 0.0
2018-Aug-07 11:59N 51°54' E 004°22'0 0.0
2018-Aug-07 11:29N 51°54' E 004°22'0 0.0
2018-Aug-07 10:59N 51°54' E 004°22'0 0.0
2018-Aug-07 10:29N 51°54' E 004°22'0 0.0
2018-Aug-07 09:59N 51°54' E 004°22'0 0.0
2018-Aug-07 09:23N 51°54' E 004°22'0 0.0
2018-Aug-07 08:59N 51°54' E 004°22'0 0.0
2018-Aug-07 08:29N 51°54' E 004°22'0 0.0
2018-Aug-07 07:59N 51°54' E 004°22'0 0.0
2018-Aug-07 07:23N 51°54' E 004°22'0 0.0
2018-Aug-07 06:59N 51°54' E 004°22'0 0.0
2018-Aug-07 06:29N 51°54' E 004°22'0 0.0
2018-Aug-07 05:56N 51°54' E 004°22'0 0.0
2018-Aug-07 05:29N 51°54' E 004°22'0 0.0
2018-Aug-07 04:59N 51°54' E 004°22'0 0.0
2018-Aug-07 04:29N 51°54' E 004°22'0 0.0
2018-Aug-07 03:56N 51°54' E 004°22'0 0.0
2018-Aug-07 03:26N 51°54' E 004°22'0 0.0
2018-Aug-07 02:56N 51°54' E 004°22'0 0.0
2018-Aug-07 02:29N 51°54' E 004°22'0 0.0
2018-Aug-07 01:56N 51°54' E 004°22'0 0.0
2018-Aug-07 01:29N 51°54' E 004°22'0 0.0
2018-Aug-07 00:59N 51°54' E 004°22'0 0.0
2018-Aug-07 00:20N 51°54' E 004°22'0 0.0
2018-Aug-06 23:59N 51°54' E 004°22'0 0.0
2018-Aug-06 23:29N 51°54' E 004°22'0 0.0
2018-Aug-06 22:59N 51°54' E 004°22'0 0.0
2018-Aug-06 22:29N 51°54' E 004°22'0 0.0
2018-Aug-06 21:59N 51°54' E 004°22'0 0.0
2018-Aug-06 21:29N 51°54' E 004°22'0 0.1
2018-Aug-06 21:00N 51°54' E 004°22'0 0.4
2018-Aug-06 20:29N 51°54' E 004°22'0 0.0
2018-Aug-06 19:59N 51°54' E 004°22'0 0.0
2018-Aug-06 19:26N 51°54' E 004°22'0 0.0
2018-Aug-06 18:56N 51°54' E 004°22'0 0.0
2018-Aug-06 18:29N 51°54' E 004°22'0 0.0
2018-Aug-06 17:59N 51°54' E 004°22'0 0.0
2018-Aug-06 17:29N 51°54' E 004°22'0 0.0
2018-Aug-06 16:56N 51°54' E 004°22'0 0.0
2018-Aug-06 16:20N 51°54' E 004°22'0 0.0
2018-Aug-06 15:59N 51°54' E 004°22'0 0.0
2018-Aug-06 15:26N 51°54' E 004°22'0 0.0
2018-Aug-06 14:50N 51°54' E 004°22'0 0.4
2018-Aug-06 14:29N 51°54' E 004°22'2 3.7
2018-Aug-06 14:00N 51°54' E 004°19'4 8.1
2018-Aug-06 13:30N 51°56' E 004°13'5 9.4
2018-Aug-06 13:00N 51°58' E 004°07'611.1
2018-Aug-06 12:30N 52°00' E 003°59'611.0
2018-Aug-06 12:00N 52°00' E 003°50'4 7.1
2018-Aug-06 11:30N 51°58' E 003°46'2 4.7
2018-Aug-06 11:00N 51°55' E 003°45'0 0.1
2018-Aug-06 10:00N 51°55' E 003°45'0 0.0
2018-Aug-06 09:18N 51°55' E 003°45'0 0.0
2018-Aug-06 08:51N 51°55' E 003°45'0 0.0
2018-Aug-06 08:30N 51°55' E 003°45'0 0.0
2018-Aug-06 08:00N 51°55' E 003°45'0 0.0
2018-Aug-06 07:30N 51°55' E 003°45'0 0.0
2018-Aug-06 06:51N 51°55' E 003°45'0 0.1
2018-Aug-06 06:30N 51°55' E 003°45'0 0.2
2018-Aug-06 06:00N 51°55' E 003°45'0 0.1
2018-Aug-06 03:54N 51°55' E 003°45'0 0.0
2018-Aug-06 03:12N 51°55' E 003°45'0 0.0
2018-Aug-06 01:09N 51°55' E 003°45'0 0.0
2018-Aug-06 00:54N 51°55' E 003°45'0 0.0
2018-Aug-06 00:30N 51°55' E 003°45'0 0.1
2018-Aug-05 23:15N 51°55' E 003°45'0 0.1
2018-Aug-05 22:51N 51°55' E 003°45'0 0.1
2018-Aug-05 22:21N 51°55' E 003°45'0 0.1
2018-Aug-05 22:00N 51°55' E 003°45'0 0.0
2018-Aug-05 21:30N 51°55' E 003°45'0 0.0
2018-Aug-05 20:27N 51°55' E 003°45'0 0.0
2018-Aug-05 19:58N 51°55' E 003°45'0 0.0
2018-Aug-05 15:45N 51°55' E 003°45'0 0.0
2018-Aug-05 15:27N 51°55' E 003°45'0 0.0
2018-Aug-05 14:39N 51°55' E 003°45'0 0.0
2018-Aug-05 12:39N 51°55' E 003°45'0 0.0
2018-Aug-05 12:18N 51°55' E 003°45'0 0.0
2018-Aug-05 06:06N 51°55' E 003°45'0 0.1
2018-Aug-05 03:21N 51°55' E 003°45'0 0.0
2018-Aug-05 02:51N 51°55' E 003°45'0 0.0
2018-Aug-05 02:27N 51°55' E 003°45'0 0.0
2018-Aug-05 01:12N 51°55' E 003°45'0 0.0
2018-Aug-05 00:42N 51°55' E 003°45'0 0.0
2018-Aug-05 00:27N 51°55' E 003°45'0 0.0
2018-Aug-04 20:06N 51°55' E 003°45'0 0.0
2018-Aug-04 19:57N 51°55' E 003°45'0 0.0
2018-Aug-04 19:30N 51°55' E 003°45'0 0.0
2018-Aug-04 19:00N 51°55' E 003°45'0 0.0
2018-Aug-04 08:51N 51°55' E 003°45'0 0.0
2018-Aug-04 08:30N 51°55' E 003°45'0 0.0
2018-Aug-04 08:00N 51°55' E 003°45'0 0.0
2018-Aug-04 07:24N 51°55' E 003°45'0 0.0
2018-Aug-04 07:00N 51°55' E 003°45'0 0.0
2018-Aug-04 06:30N 51°55' E 003°45'0 0.0
2018-Aug-04 05:00N 51°55' E 003°45'0 0.2
2018-Aug-04 04:30N 51°55' E 003°45'0 0.1
2018-Aug-04 04:00N 51°55' E 003°45'0 0.1
2018-Aug-04 03:15N 51°55' E 003°45'0 0.1
2018-Aug-04 02:57N 51°55' E 003°45'0 0.0
2018-Aug-04 01:54N 51°55' E 003°45'0 0.0
2018-Aug-04 01:27N 51°55' E 003°45'0 0.0
2018-Aug-04 01:00N 51°55' E 003°45'0 0.0
2018-Aug-04 00:21N 51°55' E 003°45'0 0.0
2018-Aug-03 23:57N 51°55' E 003°45'0 0.0
2018-Aug-03 23:12N 51°55' E 003°45'0 0.0
2018-Aug-03 23:00N 51°55' E 003°45'0 0.0
2018-Aug-03 22:21N 51°55' E 003°45'0 0.0
2018-Aug-03 22:00N 51°55' E 003°45'0 0.3
2018-Aug-03 21:24N 51°55' E 003°45'0 0.1
2018-Aug-03 20:51N 51°55' E 003°45'0 0.0
2018-Aug-03 20:21N 51°55' E 003°45'0 0.0
2018-Aug-03 19:57N 51°55' E 003°45'0 0.0
2018-Aug-03 19:21N 51°55' E 003°45'0 0.0
2018-Aug-03 18:57N 51°55' E 003°45'0 0.0
2018-Aug-03 18:30N 51°55' E 003°45'0 0.0
2018-Aug-03 18:00N 51°55' E 003°45'0 0.0
2018-Aug-03 17:24N 51°55' E 003°45'0 0.0
2018-Aug-03 17:00N 51°55' E 003°45'0 0.2
2018-Aug-03 16:30N 51°55' E 003°45'0 0.1
2018-Aug-03 16:00N 51°55' E 003°45'0 0.1
2018-Aug-03 15:27N 51°55' E 003°44'0 0.1
2018-Aug-03 14:57N 51°55' E 003°45'0 0.0
2018-Aug-03 14:21N 51°55' E 003°45'0 0.0
2018-Aug-03 13:48N 51°55' E 003°45'0 0.0
2018-Aug-03 13:18N 51°55' E 003°45'0 0.0
2018-Aug-03 12:54N 51°55' E 003°45'0 0.0
2018-Aug-03 12:27N 51°55' E 003°45'0 0.0
2018-Aug-03 11:57N 51°55' E 003°45'0 0.0
2018-Aug-03 11:27N 51°55' E 003°45'0 0.0
2018-Aug-03 10:57N 51°55' E 003°45'0 0.1
2018-Aug-03 10:27N 51°55' E 003°45'0 0.0
2018-Aug-03 10:00N 51°55' E 003°45'0 0.1
2018-Aug-03 07:36N 51°55' E 003°45'0 0.1
2018-Aug-03 05:25N 51°56' E 003°45'2 4.2
2018-Aug-03 05:00N 51°57' E 003°44'3 6.0
2018-Aug-03 04:30N 51°58' E 003°39'611.6
2018-Aug-03 04:00N 51°56' E 003°30'713.2
2018-Aug-03 03:27N 51°54' E 003°19'612.8
2018-Aug-03 03:00N 51°53' E 003°10'612.4
2018-Aug-03 02:29N 51°51' E 002°60'612.1
2018-Aug-03 02:00N 51°49' E 002°51'611.7
2018-Aug-03 01:30N 51°47' E 002°42'611.1
2018-Aug-03 01:00N 51°44' E 002°34'511.1
2018-Aug-03 00:30N 51°40' E 002°29'611.0
2018-Aug-02 23:59N 51°35' E 002°23'510.8
2018-Aug-02 23:30N 51°31' E 002°17'510.6
2018-Aug-02 23:00N 51°27' E 002°13'511.0
2018-Aug-02 22:30N 51°22' E 002°10'611.2
2018-Aug-02 22:00N 51°16' E 002°07'510.5
2018-Aug-02 21:30N 51°13' E 002°01'611.3
2018-Aug-02 21:00N 51°10' E 001°53'611.3
2018-Aug-02 20:30N 51°07' E 001°46'611.5
2018-Aug-02 20:00N 51°03' E 001°39'612.0
2018-Aug-02 19:31N 50°59' E 001°32'611.9
2018-Aug-02 19:00N 50°54' E 001°27'612.8
2018-Aug-02 18:30N 50°47' E 001°25'612.1
2018-Aug-02 18:00N 50°42' E 001°19'612.7
2018-Aug-02 17:30N 50°38' E 001°12'612.7
2018-Aug-02 17:00N 50°33' E 001°05'612.2
2018-Aug-02 16:30N 50°30' E 000°57'612.4
2018-Aug-02 16:00N 50°28' E 000°48'612.4
2018-Aug-02 15:30N 50°26' E 000°38'612.5
2018-Aug-02 15:00N 50°25' E 000°29'612.7
2018-Aug-02 14:30N 50°23' E 000°19'613.0
2018-Aug-02 14:00N 50°22' E 000°10'813.6
2018-Aug-02 13:23N 50°20' W 000°03'514.1
2018-Aug-02 13:00N 50°19' W 000°12'714.5
2018-Aug-02 12:29N 50°17' W 000°23'815.1
2018-Aug-02 11:56N 50°15' W 000°36'715.2
2018-Aug-02 11:30N 50°13' W 000°46'815.4
2018-Aug-02 11:00N 50°12' W 000°57'610.8
2018-Aug-02 10:29N 50°14' W 001°05'612.1
2018-Aug-02 10:01N 50°20' W 001°06'510.9
2018-Aug-02 09:30N 50°24' W 001°01'611.0
2018-Aug-02 09:00N 50°29' W 000°55'1310.7
2018-Aug-02 07:45N 50°42' W 000°57'311.5
2018-Aug-02 07:30N 50°43' W 001°01'612.6
2018-Aug-02 07:00N 50°46' W 001°10'611.3
2018-Aug-02 06:30N 50°47' W 001°19'3 6.9
2018-Aug-02 06:00N 50°50' W 001°20'0 0.3
2018-Aug-02 05:20N 50°50' W 001°20'0 0.0
2018-Aug-02 04:50N 50°50' W 001°20'0 0.0
2018-Aug-02 04:23N 50°50' W 001°20'0 0.0
2018-Aug-02 03:53N 50°50' W 001°20'0 0.0
2018-Aug-02 03:23N 50°50' W 001°20'0 0.0
2018-Aug-02 02:53N 50°50' W 001°20'0 0.0
2018-Aug-02 02:26N 50°50' W 001°20'0 0.0
2018-Aug-02 01:56N 50°50' W 001°20'  

Dump ship's entire track history